createdAt,value
2023-01-31T00:00:26.603Z,9.21
2023-01-31T00:02:53.335Z,9.17
2023-01-31T00:05:20.718Z,9.12
2023-01-31T00:07:48.119Z,9.09
2023-01-31T00:10:14.871Z,9.08
2023-01-31T00:12:41.766Z,9.06
2023-01-31T00:15:08.610Z,9.04
2023-01-31T00:17:35.928Z,9.04
2023-01-31T00:20:02.681Z,9.00
2023-01-31T00:22:29.258Z,8.95
2023-01-31T00:24:56.025Z,8.92
2023-01-31T00:27:22.713Z,8.88
2023-01-31T00:29:49.273Z,8.82
2023-01-31T00:32:15.922Z,8.78
2023-01-31T00:34:48.284Z,8.72
2023-01-31T00:37:14.963Z,8.68
2023-01-31T00:39:41.517Z,8.65
2023-01-31T00:42:08.265Z,8.64
2023-01-31T00:44:35.234Z,8.65
2023-01-31T00:47:01.977Z,8.64
2023-01-31T00:49:28.715Z,8.59
2023-01-31T00:51:55.284Z,8.57
2023-01-31T00:54:21.843Z,8.50
2023-01-31T00:56:48.564Z,8.51
2023-01-31T00:59:15.256Z,8.56
2023-01-31T01:01:42.221Z,8.57
2023-01-31T01:04:08.969Z,8.59
2023-01-31T01:06:36.230Z,8.61
2023-01-31T01:09:03.354Z,8.61
2023-01-31T01:11:30.958Z,8.60
2023-01-31T01:13:58.011Z,8.62
2023-01-31T01:16:29.307Z,8.64
2023-01-31T01:18:56.335Z,8.66
2023-01-31T01:21:23.876Z,8.64
2023-01-31T01:23:50.733Z,8.61
2023-01-31T01:26:22.497Z,8.58
2023-01-31T01:28:49.407Z,8.51
2023-01-31T01:31:19.003Z,8.43
2023-01-31T01:33:46.369Z,8.36
2023-01-31T01:36:13.415Z,8.34
2023-01-31T01:38:42.831Z,8.30
2023-01-31T01:41:09.951Z,8.23
2023-01-31T01:44:06.159Z,8.20
2023-01-31T01:46:42.677Z,8.13
2023-01-31T01:49:22.917Z,8.07
2023-01-31T01:51:49.585Z,8.03
2023-01-31T01:54:17.522Z,7.99
2023-01-31T01:56:45.272Z,8.00
2023-01-31T01:59:15.485Z,8.00
2023-01-31T02:01:42.134Z,8.01
2023-01-31T02:04:10.370Z,7.99
2023-01-31T02:06:37.059Z,7.96
2023-01-31T02:09:03.720Z,7.94
2023-01-31T02:11:30.934Z,7.91
2023-01-31T02:14:05.653Z,7.88
2023-01-31T02:16:32.372Z,7.83
2023-01-31T02:18:59.051Z,7.80
2023-01-31T02:21:44.678Z,7.74
2023-01-31T02:24:17.317Z,7.70
2023-01-31T02:26:49.751Z,7.64
2023-01-31T02:29:34.767Z,7.65
2023-01-31T02:32:31.106Z,7.63
2023-01-31T02:35:07.463Z,7.62
2023-01-31T02:37:34.149Z,7.55
2023-01-31T02:40:02.483Z,7.57
2023-01-31T02:42:38.277Z,7.51
2023-01-31T02:45:07.987Z,7.47
2023-01-31T02:47:53.390Z,7.42
2023-01-31T02:50:26.118Z,7.43
2023-01-31T02:52:55.650Z,7.44
2023-01-31T02:55:45.288Z,7.45
2023-01-31T02:58:12.568Z,7.41
2023-01-31T03:00:40.069Z,7.47
2023-01-31T03:03:07.675Z,7.47
2023-01-31T03:05:34.403Z,7.53
2023-01-31T03:08:01.316Z,7.59
2023-01-31T03:10:27.950Z,7.55
2023-01-31T03:12:54.490Z,7.51
2023-01-31T03:15:21.854Z,7.46
2023-01-31T03:17:59.445Z,7.49
2023-01-31T03:20:32.665Z,7.48
2023-01-31T03:23:00.408Z,7.44
2023-01-31T03:25:27.882Z,7.44
2023-01-31T03:27:58.289Z,7.43
2023-01-31T03:30:31.023Z,7.44
2023-01-31T03:33:18.237Z,7.41
2023-01-31T03:35:46.684Z,7.43
2023-01-31T03:38:22.794Z,7.44
2023-01-31T03:41:00.219Z,7.41
2023-01-31T03:43:40.487Z,7.31
2023-01-31T03:46:11.838Z,7.25
2023-01-31T03:48:39.511Z,7.18
2023-01-31T03:51:07.480Z,7.11
2023-01-31T03:53:34.057Z,7.06
2023-01-31T03:56:09.851Z,7.01
2023-01-31T03:58:37.979Z,6.92
2023-01-31T04:01:05.502Z,6.89
2023-01-31T04:03:42.526Z,6.91
2023-01-31T04:06:09.332Z,6.95
2023-01-31T04:08:36.211Z,6.99
2023-01-31T04:11:06.669Z,7.01
2023-01-31T04:13:33.313Z,6.99
2023-01-31T04:15:59.970Z,6.97
2023-01-31T04:18:26.630Z,6.97
2023-01-31T04:20:53.317Z,7.00
2023-01-31T04:23:20.020Z,7.01
2023-01-31T04:25:46.813Z,7.01
2023-01-31T04:28:13.676Z,7.02
2023-01-31T04:30:40.312Z,7.06
2023-01-31T04:33:06.941Z,7.07
2023-01-31T04:35:35.125Z,7.05
2023-01-31T04:38:01.719Z,7.03
2023-01-31T04:40:28.282Z,6.97
2023-01-31T04:42:54.988Z,6.89
2023-01-31T04:45:21.972Z,6.88
2023-01-31T04:47:48.777Z,6.83
2023-01-31T04:50:15.664Z,6.77
2023-01-31T04:52:42.253Z,6.70
2023-01-31T04:55:09.263Z,6.68
2023-01-31T04:57:36.343Z,6.67
2023-01-31T05:00:02.983Z,6.73
2023-01-31T05:02:30.694Z,6.78
2023-01-31T05:04:57.421Z,6.82
2023-01-31T05:07:24.016Z,6.87
2023-01-31T05:09:50.678Z,6.91
2023-01-31T05:12:17.541Z,6.96
2023-01-31T05:14:44.205Z,6.99
2023-01-31T05:17:11.020Z,7.01
2023-01-31T05:19:37.729Z,7.02
2023-01-31T05:22:04.398Z,7.03
2023-01-31T05:24:31.633Z,7.02
2023-01-31T05:26:59.109Z,7.01
2023-01-31T05:29:27.147Z,6.98
2023-01-31T05:31:54.465Z,6.97
2023-01-31T05:34:21.206Z,6.95
2023-01-31T05:36:47.999Z,6.89
2023-01-31T05:39:14.815Z,6.85
2023-01-31T05:41:41.617Z,6.83
2023-01-31T05:44:08.283Z,6.82
2023-01-31T05:46:35.044Z,6.86
2023-01-31T05:49:02.178Z,6.87
2023-01-31T05:57:53.783Z,6.89
2023-01-31T06:00:20.479Z,6.85
2023-01-31T06:02:48.296Z,6.80
2023-01-31T06:05:15.064Z,6.76
2023-01-31T06:07:41.765Z,6.74
2023-01-31T06:10:09.827Z,6.78
2023-01-31T06:12:36.701Z,6.82
2023-01-31T06:15:03.564Z,6.83
2023-01-31T06:17:30.884Z,6.77
2023-01-31T06:19:58.071Z,6.74
2023-01-31T06:22:24.677Z,6.61
2023-01-31T06:24:51.345Z,6.50
2023-01-31T06:27:18.019Z,6.39
2023-01-31T06:29:44.598Z,6.39
2023-01-31T06:32:11.240Z,6.42
2023-01-31T06:34:38.022Z,6.49
2023-01-31T06:37:04.573Z,6.50
2023-01-31T06:39:31.697Z,6.52
2023-01-31T06:41:58.400Z,6.52
2023-01-31T06:44:26.568Z,6.45
2023-01-31T06:46:54.104Z,6.34
2023-01-31T06:49:20.816Z,6.17
2023-01-31T06:51:47.455Z,6.02
2023-01-31T06:54:14.108Z,5.91
2023-01-31T06:56:40.764Z,5.83
2023-01-31T06:59:07.388Z,5.82
2023-01-31T07:01:34.000Z,5.80
2023-01-31T07:04:00.660Z,5.86
2023-01-31T07:06:27.294Z,5.97
2023-01-31T07:08:53.977Z,6.08
2023-01-31T07:11:20.614Z,6.14
2023-01-31T07:13:48.011Z,6.18
2023-01-31T07:16:16.965Z,6.16
2023-01-31T07:18:43.674Z,6.08
2023-01-31T07:21:11.026Z,6.03
2023-01-31T07:23:37.593Z,6.00
2023-01-31T07:26:05.012Z,5.99
2023-01-31T07:28:31.891Z,6.00
2023-01-31T07:31:06.010Z,6.06
2023-01-31T07:33:33.484Z,6.13
2023-01-31T07:36:01.652Z,6.20
2023-01-31T07:38:28.426Z,6.23
2023-01-31T07:40:55.176Z,6.27
2023-01-31T07:43:21.834Z,6.30
2023-01-31T07:45:48.770Z,6.31
2023-01-31T07:48:15.480Z,6.33
2023-01-31T07:50:42.161Z,6.34
2023-01-31T07:53:08.787Z,6.34
2023-01-31T07:55:35.356Z,6.36
2023-01-31T07:58:01.923Z,6.39
2023-01-31T08:00:47.222Z,6.37
2023-01-31T08:03:34.246Z,6.30
2023-01-31T08:06:01.733Z,6.21
2023-01-31T08:08:28.285Z,6.21
2023-01-31T08:10:54.854Z,6.32
2023-01-31T08:13:22.599Z,6.51
2023-01-31T08:15:51.337Z,6.70
2023-01-31T08:18:17.896Z,6.87
2023-01-31T08:20:45.035Z,7.06
2023-01-31T08:23:11.766Z,7.24
2023-01-31T08:25:38.325Z,7.36
2023-01-31T08:28:05.047Z,7.50
2023-01-31T08:30:31.768Z,7.64
2023-01-31T08:32:58.473Z,7.78
2023-01-31T08:35:29.288Z,8.03
2023-01-31T08:38:06.987Z,8.25
2023-01-31T08:40:41.028Z,8.54
2023-01-31T08:43:08.498Z,8.83
2023-01-31T08:45:35.489Z,9.15
2023-01-31T08:48:02.260Z,9.44
2023-01-31T08:50:29.465Z,9.64
2023-01-31T08:52:56.335Z,9.80
2023-01-31T08:55:23.309Z,9.96
2023-01-31T08:57:59.367Z,10.08
2023-01-31T09:00:26.713Z,10.16
2023-01-31T09:02:53.734Z,10.31
2023-01-31T09:05:20.625Z,10.50
2023-01-31T09:07:47.596Z,10.67
2023-01-31T09:10:14.200Z,10.81
2023-01-31T09:12:40.841Z,10.90
2023-01-31T09:15:07.755Z,11.00
2023-01-31T09:17:34.315Z,11.05
2023-01-31T09:20:06.578Z,11.11
2023-01-31T09:22:34.602Z,11.28
2023-01-31T09:25:02.754Z,11.43
2023-01-31T09:27:29.773Z,11.60
2023-01-31T09:29:56.496Z,11.74
2023-01-31T09:32:23.166Z,11.90
2023-01-31T09:34:49.845Z,12.13
2023-01-31T09:37:16.646Z,12.41
2023-01-31T09:39:43.369Z,12.79
2023-01-31T09:42:19.185Z,13.21
2023-01-31T09:44:46.180Z,13.69
2023-01-31T09:47:22.608Z,14.20
2023-01-31T09:49:50.337Z,14.83
2023-01-31T09:52:17.006Z,15.44
2023-01-31T09:54:43.875Z,16.00
2023-01-31T09:57:14.234Z,16.47
2023-01-31T09:59:52.531Z,16.83
2023-01-31T10:02:28.611Z,17.00
2023-01-31T10:05:05.739Z,17.13
2023-01-31T10:07:39.765Z,17.25
2023-01-31T10:10:36.027Z,17.32
2023-01-31T10:13:34.415Z,17.28
2023-01-31T10:16:02.974Z,17.38
2023-01-31T10:18:30.892Z,17.45
2023-01-31T10:20:58.829Z,17.66
2023-01-31T10:23:45.524Z,17.96
2023-01-31T10:26:16.693Z,18.35
2023-01-31T10:28:43.874Z,18.67
2023-01-31T10:31:29.211Z,18.93
2023-01-31T10:33:57.382Z,19.12
2023-01-31T10:36:29.134Z,19.28
2023-01-31T10:39:00.675Z,19.26
2023-01-31T10:41:34.469Z,19.08
2023-01-31T10:44:02.123Z,18.83
2023-01-31T10:46:28.929Z,18.73
2023-01-31T10:48:56.719Z,18.72
2023-01-31T10:51:36.013Z,18.75
2023-01-31T10:54:02.566Z,18.95
2023-01-31T10:56:31.598Z,19.27
2023-01-31T10:58:59.103Z,19.66
2023-01-31T11:01:25.732Z,19.86
2023-01-31T11:03:53.173Z,20.11
2023-01-31T11:06:20.018Z,20.43
2023-01-31T11:08:47.715Z,20.80
2023-01-31T11:11:21.199Z,20.95
2023-01-31T11:14:00.908Z,21.04
2023-01-31T11:16:31.327Z,21.09
2023-01-31T11:18:58.347Z,21.13
2023-01-31T11:21:31.817Z,21.20
2023-01-31T11:24:14.090Z,21.18
2023-01-31T11:26:51.806Z,21.22
2023-01-31T11:29:19.381Z,21.35
2023-01-31T11:31:47.807Z,21.53
2023-01-31T11:36:45.784Z,21.73
2023-01-31T11:39:21.843Z,21.68
2023-01-31T11:41:48.538Z,21.79
2023-01-31T11:44:16.020Z,21.99
2023-01-31T11:46:44.227Z,22.20
2023-01-31T11:49:14.601Z,22.37
2023-01-31T11:51:41.291Z,22.34
2023-01-31T11:54:07.964Z,22.56
2023-01-31T11:56:35.456Z,22.67
2023-01-31T11:59:10.914Z,22.79
2023-01-31T12:01:44.343Z,23.14
2023-01-31T12:04:14.340Z,23.62
2023-01-31T12:06:41.171Z,24.06
2023-01-31T12:09:20.957Z,24.40
2023-01-31T12:12:00.858Z,24.42
2023-01-31T12:14:38.465Z,24.63
2023-01-31T12:17:05.093Z,24.85
2023-01-31T12:19:47.097Z,25.02
2023-01-31T12:22:25.414Z,25.32
2023-01-31T12:25:02.294Z,25.57
2023-01-31T12:27:32.000Z,25.87
2023-01-31T12:30:09.545Z,26.20
2023-01-31T12:32:55.102Z,26.55
2023-01-31T12:35:28.026Z,26.88
2023-01-31T12:38:01.359Z,27.07
2023-01-31T12:40:40.201Z,27.21
2023-01-31T12:43:23.062Z,27.47
2023-01-31T12:45:49.774Z,27.74
2023-01-31T12:48:19.610Z,27.92
2023-01-31T12:50:52.164Z,28.08
2023-01-31T12:53:21.388Z,28.28
2023-01-31T12:55:55.322Z,28.44
2023-01-31T12:58:21.890Z,28.58
2023-01-31T13:00:48.656Z,28.70
2023-01-31T13:03:21.697Z,28.84
2023-01-31T13:05:58.438Z,28.92
2023-01-31T13:08:26.102Z,29.00
2023-01-31T13:11:09.711Z,29.11
2023-01-31T13:13:38.282Z,29.27
2023-01-31T13:16:11.154Z,29.47
2023-01-31T13:18:37.779Z,29.59
2023-01-31T13:21:05.245Z,29.57
2023-01-31T13:23:33.626Z,29.56
2023-01-31T13:26:21.377Z,29.63
2023-01-31T13:28:58.441Z,29.72
2023-01-31T13:31:26.494Z,29.51
2023-01-31T13:34:16.397Z,29.46
2023-01-31T13:36:43.285Z,29.42
2023-01-31T13:39:18.131Z,28.52
2023-01-31T13:41:44.906Z,27.26
2023-01-31T13:44:12.984Z,26.02
2023-01-31T13:46:42.601Z,24.80
2023-01-31T13:49:17.809Z,23.70
2023-01-31T13:51:46.076Z,22.73
2023-01-31T13:54:42.234Z,21.91
2023-01-31T13:57:17.379Z,21.10
2023-01-31T13:59:44.029Z,20.46
2023-01-31T14:02:17.584Z,19.95
2023-01-31T14:04:47.300Z,19.49
2023-01-31T14:07:14.726Z,19.06
2023-01-31T14:09:44.492Z,18.67
2023-01-31T14:12:11.221Z,18.32
2023-01-31T14:14:42.696Z,18.01
2023-01-31T14:17:13.124Z,17.70
2023-01-31T14:19:42.824Z,17.43
2023-01-31T14:22:18.489Z,17.20
2023-01-31T14:24:53.423Z,16.99
2023-01-31T14:27:20.975Z,16.81
2023-01-31T14:30:08.323Z,16.64
2023-01-31T14:32:47.959Z,16.50
2023-01-31T14:35:14.616Z,16.34
2023-01-31T14:37:41.525Z,16.20
2023-01-31T14:40:22.804Z,16.08
2023-01-31T14:42:52.790Z,15.94
2023-01-31T14:45:24.104Z,15.85
2023-01-31T14:47:50.682Z,15.75
2023-01-31T14:50:20.708Z,15.62
2023-01-31T14:52:50.572Z,15.51
2023-01-31T14:55:35.777Z,15.40
2023-01-31T14:58:02.687Z,15.28
2023-01-31T15:00:30.493Z,15.18
2023-01-31T15:03:01.326Z,15.08
2023-01-31T15:05:31.286Z,15.02
2023-01-31T15:08:00.934Z,14.96
2023-01-31T15:10:46.159Z,14.91
2023-01-31T15:13:48.297Z,14.83
2023-01-31T15:16:27.657Z,14.74
2023-01-31T15:18:57.371Z,14.66
2023-01-31T15:21:28.176Z,14.60
2023-01-31T15:23:54.778Z,14.55
2023-01-31T15:26:21.471Z,14.48
2023-01-31T15:28:48.261Z,14.43
2023-01-31T15:31:22.528Z,14.38
2023-01-31T15:33:53.243Z,14.34
2023-01-31T15:36:33.548Z,14.31
2023-01-31T15:39:04.906Z,14.27
2023-01-31T15:41:44.463Z,14.23
2023-01-31T15:44:12.295Z,14.18
2023-01-31T15:46:38.995Z,14.15
2023-01-31T15:49:25.789Z,14.12
2023-01-31T15:52:08.888Z,14.08
2023-01-31T15:54:35.606Z,14.06
2023-01-31T15:57:02.542Z,14.03
2023-01-31T15:59:29.599Z,14.00
2023-01-31T16:02:03.495Z,13.96
2023-01-31T16:04:30.158Z,13.93
2023-01-31T16:06:56.721Z,13.90
2023-01-31T16:09:24.683Z,13.86
2023-01-31T16:11:51.337Z,13.84
2023-01-31T16:14:17.971Z,13.81
2023-01-31T16:16:44.793Z,13.78
2023-01-31T16:19:13.849Z,13.75
2023-01-31T16:21:43.536Z,13.72
2023-01-31T16:24:17.083Z,13.69
2023-01-31T16:26:52.841Z,13.64
2023-01-31T16:29:19.734Z,13.62
2023-01-31T16:31:51.225Z,13.61
2023-01-31T16:34:21.043Z,13.59
2023-01-31T16:36:50.710Z,13.56
2023-01-31T16:39:29.240Z,13.55
2023-01-31T16:41:58.372Z,13.52
2023-01-31T16:44:26.925Z,13.50
2023-01-31T16:46:53.697Z,13.47
2023-01-31T16:49:38.674Z,13.45
2023-01-31T16:52:16.647Z,13.43
2023-01-31T16:54:50.276Z,13.40
2023-01-31T16:57:24.151Z,13.38
2023-01-31T16:59:51.480Z,13.34
2023-01-31T17:02:22.384Z,13.29
2023-01-31T17:04:50.129Z,13.27
2023-01-31T17:07:21.499Z,13.24
2023-01-31T17:09:48.222Z,13.20
2023-01-31T17:12:17.372Z,13.17
2023-01-31T17:14:43.973Z,13.13
2023-01-31T17:17:16.171Z,13.08
2023-01-31T17:19:48.266Z,13.04
2023-01-31T17:22:15.401Z,13.01
2023-01-31T17:24:42.011Z,12.96
2023-01-31T17:27:10.456Z,12.91
2023-01-31T17:29:37.014Z,12.86
2023-01-31T17:32:03.636Z,12.80
2023-01-31T17:34:30.448Z,12.75
2023-01-31T17:36:57.088Z,12.70
2023-01-31T17:39:23.741Z,12.66
2023-01-31T17:41:50.541Z,12.62
2023-01-31T17:44:17.225Z,12.57
2023-01-31T17:46:44.310Z,12.52
2023-01-31T17:49:11.212Z,12.49
2023-01-31T17:51:38.074Z,12.45
2023-01-31T17:54:04.754Z,12.40
2023-01-31T17:56:31.432Z,12.36
2023-01-31T17:58:57.999Z,12.30
2023-01-31T18:01:24.618Z,12.25
2023-01-31T18:03:51.487Z,12.20
2023-01-31T18:06:19.012Z,12.15
2023-01-31T18:08:45.626Z,12.09
2023-01-31T18:11:14.324Z,12.05
2023-01-31T18:13:41.095Z,12.01
2023-01-31T18:16:15.083Z,11.97
2023-01-31T18:18:42.003Z,11.91
2023-01-31T18:21:09.237Z,11.87
2023-01-31T18:23:35.856Z,11.84
2023-01-31T18:26:03.815Z,11.80
2023-01-31T18:28:30.375Z,11.78
2023-01-31T18:31:01.169Z,11.75
2023-01-31T18:33:27.955Z,11.71
2023-01-31T18:35:58.212Z,11.69
2023-01-31T18:38:25.092Z,11.65
2023-01-31T18:40:51.702Z,11.61
2023-01-31T18:43:18.695Z,11.57
2023-01-31T18:45:45.356Z,11.53
2023-01-31T18:48:11.917Z,11.48
2023-01-31T18:50:38.519Z,11.45
2023-01-31T18:53:05.614Z,11.43
2023-01-31T18:55:32.152Z,11.41
2023-01-31T18:57:58.757Z,11.38
2023-01-31T19:00:25.582Z,11.37
2023-01-31T19:02:52.452Z,11.36
2023-01-31T19:05:19.601Z,11.33
2023-01-31T19:07:46.511Z,11.34
2023-01-31T19:10:13.273Z,11.33
2023-01-31T19:12:39.959Z,11.31
2023-01-31T19:15:07.411Z,11.28
2023-01-31T19:17:34.087Z,11.26
2023-01-31T19:20:00.648Z,11.24
2023-01-31T19:22:28.896Z,11.21
2023-01-31T19:24:56.632Z,11.21
2023-01-31T19:27:23.702Z,11.19
2023-01-31T19:29:50.459Z,11.17
2023-01-31T19:32:17.014Z,11.15
2023-01-31T19:34:43.578Z,11.13
2023-01-31T19:37:10.310Z,11.12
2023-01-31T19:39:37.093Z,11.12
2023-01-31T19:42:04.837Z,11.11
2023-01-31T19:44:32.061Z,11.09
2023-01-31T19:46:58.965Z,11.09
2023-01-31T19:49:25.527Z,11.10
2023-01-31T19:51:52.200Z,11.08
2023-01-31T19:54:19.823Z,11.07
2023-01-31T19:56:46.445Z,11.06
2023-01-31T19:59:13.775Z,11.03
2023-01-31T20:01:40.331Z,11.00
2023-01-31T20:04:06.967Z,10.98
2023-01-31T20:06:35.252Z,10.97
2023-01-31T20:09:04.839Z,10.96
2023-01-31T20:11:31.561Z,10.95
2023-01-31T20:13:58.431Z,10.96
2023-01-31T20:16:25.327Z,10.97
2023-01-31T20:18:53.097Z,10.97
2023-01-31T20:21:21.031Z,10.98
2023-01-31T20:23:48.718Z,10.97
2023-01-31T20:26:15.681Z,10.96
2023-01-31T20:28:43.592Z,10.95
2023-01-31T20:31:10.969Z,10.95
2023-01-31T20:33:37.556Z,10.93
2023-01-31T20:36:04.621Z,10.93
2023-01-31T20:38:31.421Z,10.93
2023-01-31T20:40:57.989Z,10.93
2023-01-31T20:43:25.344Z,10.92
2023-01-31T20:45:52.122Z,10.91
2023-01-31T20:48:18.983Z,10.91
2023-01-31T20:50:53.465Z,10.92
2023-01-31T20:53:20.030Z,10.91
2023-01-31T20:55:47.120Z,10.91
2023-01-31T20:58:13.935Z,10.92
2023-01-31T21:00:40.661Z,10.93
2023-01-31T21:03:07.303Z,10.94
2023-01-31T21:05:38.724Z,10.96
2023-01-31T21:08:05.792Z,10.97
2023-01-31T21:10:32.665Z,10.97
2023-01-31T21:12:59.479Z,10.98
2023-01-31T21:15:27.847Z,10.98
2023-01-31T21:17:55.258Z,10.95
2023-01-31T21:20:22.231Z,10.91
2023-01-31T21:22:49.491Z,10.85
2023-01-31T21:25:16.156Z,10.79
2023-01-31T21:27:43.311Z,10.72
2023-01-31T21:30:10.299Z,10.66
2023-01-31T21:32:36.892Z,10.62
2023-01-31T21:35:03.688Z,10.59
2023-01-31T21:37:30.381Z,10.57
2023-01-31T21:39:56.959Z,10.55
2023-01-31T21:42:23.679Z,10.52
2023-01-31T21:44:50.296Z,10.49
2023-01-31T21:47:16.904Z,10.47
2023-01-31T21:49:43.825Z,10.42
2023-01-31T21:52:10.372Z,10.36
2023-01-31T21:54:37.428Z,10.32
2023-01-31T21:57:04.240Z,10.29
2023-01-31T21:59:32.522Z,10.25
2023-01-31T22:01:59.486Z,10.20
2023-01-31T22:04:26.315Z,10.16
2023-01-31T22:06:53.640Z,10.13
2023-01-31T22:09:20.213Z,10.11
2023-01-31T22:11:48.221Z,10.09
2023-01-31T22:14:15.240Z,10.11
2023-01-31T22:16:42.201Z,10.14
2023-01-31T22:19:10.129Z,10.17
2023-01-31T22:21:36.800Z,10.18
2023-01-31T22:24:03.952Z,10.19
2023-01-31T22:26:31.760Z,10.19
2023-01-31T22:28:59.435Z,10.17
2023-01-31T22:31:26.178Z,10.18
2023-01-31T22:33:52.902Z,10.20
2023-01-31T22:36:19.613Z,10.19
2023-01-31T22:38:46.353Z,10.18
2023-01-31T22:41:13.535Z,10.15
2023-01-31T22:43:40.904Z,10.10
2023-01-31T22:46:08.157Z,10.09
2023-01-31T22:48:35.142Z,10.07
2023-01-31T22:51:03.667Z,10.07
2023-01-31T22:53:31.281Z,10.07
2023-01-31T22:56:05.249Z,10.08
2023-01-31T22:58:32.105Z,10.05
2023-01-31T23:00:58.741Z,10.01
2023-01-31T23:03:25.598Z,9.97
2023-01-31T23:05:52.315Z,9.95
2023-01-31T23:08:19.034Z,9.91
2023-01-31T23:10:45.724Z,9.89
2023-01-31T23:13:12.529Z,9.81
2023-01-31T23:15:39.595Z,9.74
2023-01-31T23:18:06.221Z,9.70
2023-01-31T23:20:33.085Z,9.71
2023-01-31T23:22:59.745Z,9.73
2023-01-31T23:25:26.879Z,9.76
2023-01-31T23:27:55.011Z,9.80
2023-01-31T23:30:22.007Z,9.81
2023-01-31T23:32:48.816Z,9.76
2023-01-31T23:35:15.670Z,9.72
2023-01-31T23:37:42.771Z,9.69
2023-01-31T23:40:09.818Z,9.69
2023-01-31T23:42:36.513Z,9.70
2023-01-31T23:45:03.131Z,9.71
2023-01-31T23:47:29.817Z,9.71
2023-01-31T23:49:56.520Z,9.70
2023-01-31T23:52:23.053Z,9.69
2023-01-31T23:54:49.643Z,9.69
2023-01-31T23:57:16.305Z,9.69
2023-01-31T23:59:42.989Z,9.69
